sensor_id;sensor_type;location;lat;lon;timestamp;temperature;humidity
21199;DHT22;10757;51.038;3.712;2022-09-17T00:02:11;12.60;99.90
21199;DHT22;10757;51.038;3.712;2022-09-17T00:04:38;12.50;99.90
21199;DHT22;10757;51.038;3.712;2022-09-17T00:07:03;12.40;99.90
21199;DHT22;10757;51.038;3.712;2022-09-17T00:09:29;12.40;99.90
21199;DHT22;10757;51.038;3.712;2022-09-17T00:11:55;12.40;99.90
21199;DHT22;10757;51.038;3.712;2022-09-17T00:14:21;12.30;99.90
21199;DHT22;10757;51.038;3.712;2022-09-17T00:16:47;12.20;99.90
21199;DHT22;10757;51.038;3.712;2022-09-17T00:19:19;12.20;99.90
21199;DHT22;10757;51.038;3.712;2022-09-17T00:21:45;12.20;99.90
21199;DHT22;10757;51.038;3.712;2022-09-17T00:24:12;12.20;99.90
21199;DHT22;10757;51.038;3.712;2022-09-17T00:26:38;12.20;99.90
21199;DHT22;10757;51.038;3.712;2022-09-17T00:29:05;12.20;99.90
21199;DHT22;10757;51.038;3.712;2022-09-17T00:31:32;12.30;99.90
21199;DHT22;10757;51.038;3.712;2022-09-17T00:33:58;12.30;99.90
21199;DHT22;10757;51.038;3.712;2022-09-17T00:36:24;12.20;99.90
21199;DHT22;10757;51.038;3.712;2022-09-17T00:38:54;12.20;99.90
21199;DHT22;10757;51.038;3.712;2022-09-17T00:41:21;12.10;99.90
21199;DHT22;10757;51.038;3.712;2022-09-17T00:43:53;12.20;99.90
21199;DHT22;10757;51.038;3.712;2022-09-17T00:49:28;12.20;99.90
21199;DHT22;10757;51.038;3.712;2022-09-17T00:52:05;12.30;99.90
21199;DHT22;10757;51.038;3.712;2022-09-17T00:54:32;12.40;99.90
21199;DHT22;10757;51.038;3.712;2022-09-17T00:56:58;12.40;99.90
21199;DHT22;10757;51.038;3.712;2022-09-17T00:59:24;12.50;99.90
21199;DHT22;10757;51.038;3.712;2022-09-17T01:01:51;12.60;99.90
21199;DHT22;10757;51.038;3.712;2022-09-17T01:04:19;12.60;99.90
21199;DHT22;10757;51.038;3.712;2022-09-17T01:09:56;12.70;99.90
21199;DHT22;10757;51.038;3.712;2022-09-17T01:15:23;12.70;99.90
21199;DHT22;10757;51.038;3.712;2022-09-17T01:23:56;12.80;99.90
21199;DHT22;10757;51.038;3.712;2022-09-17T01:29:20;12.70;99.90
21199;DHT22;10757;51.038;3.712;2022-09-17T01:34:50;12.80;99.90
21199;DHT22;10757;51.038;3.712;2022-09-17T01:40:11;12.70;99.90
21199;DHT22;10757;51.038;3.712;2022-09-17T01:45:42;12.70;99.90
21199;DHT22;10757;51.038;3.712;2022-09-17T01:48:16;12.80;99.90
21199;DHT22;10757;51.038;3.712;2022-09-17T01:50:52;12.80;99.90
21199;DHT22;10757;51.038;3.712;2022-09-17T01:53:24;12.40;99.90
21199;DHT22;10757;51.038;3.712;2022-09-17T01:55:54;12.10;99.90
21199;DHT22;10757;51.038;3.712;2022-09-17T01:58:34;12.00;99.90
21199;DHT22;10757;51.038;3.712;2022-09-17T02:01:03;11.90;99.90
21199;DHT22;10757;51.038;3.712;2022-09-17T02:03:35;11.90;99.90
21199;DHT22;10757;51.038;3.712;2022-09-17T02:08:44;11.60;99.90
21199;DHT22;10757;51.038;3.712;2022-09-17T02:11:12;11.60;99.90
21199;DHT22;10757;51.038;3.712;2022-09-17T02:13:59;11.60;99.90
21199;DHT22;10757;51.038;3.712;2022-09-17T02:16:30;11.60;99.90
21199;DHT22;10757;51.038;3.712;2022-09-17T02:27:21;12.40;99.90
21199;DHT22;10757;51.038;3.712;2022-09-17T02:29:49;12.40;99.90
21199;DHT22;10757;51.038;3.712;2022-09-17T02:32:16;12.50;99.90
21199;DHT22;10757;51.038;3.712;2022-09-17T02:34:42;12.70;99.90
21199;DHT22;10757;51.038;3.712;2022-09-17T02:37:07;12.70;99.90
21199;DHT22;10757;51.038;3.712;2022-09-17T02:39:34;12.70;99.90
21199;DHT22;10757;51.038;3.712;2022-09-17T02:50:14;12.40;99.90
21199;DHT22;10757;51.038;3.712;2022-09-17T02:53:16;12.40;99.90
21199;DHT22;10757;51.038;3.712;2022-09-17T02:55:58;12.50;99.90
21199;DHT22;10757;51.038;3.712;2022-09-17T02:58:31;12.70;99.90
21199;DHT22;10757;51.038;3.712;2022-09-17T03:01:05;12.70;99.90
21199;DHT22;10757;51.038;3.712;2022-09-17T03:03:42;12.60;99.90
21199;DHT22;10757;51.038;3.712;2022-09-17T03:06:08;12.50;99.90
21199;DHT22;10757;51.038;3.712;2022-09-17T03:08:37;12.70;99.90
21199;DHT22;10757;51.038;3.712;2022-09-17T03:11:05;12.90;99.90
21199;DHT22;10757;51.038;3.712;2022-09-17T03:13:31;12.90;99.90
21199;DHT22;10757;51.038;3.712;2022-09-17T03:15:56;12.80;99.90
21199;DHT22;10757;51.038;3.712;2022-09-17T03:18:22;12.80;99.90
21199;DHT22;10757;51.038;3.712;2022-09-17T03:20:48;12.80;99.90
21199;DHT22;10757;51.038;3.712;2022-09-17T03:23:14;12.70;99.90
21199;DHT22;10757;51.038;3.712;2022-09-17T03:25:39;12.70;99.90
21199;DHT22;10757;51.038;3.712;2022-09-17T03:28:05;12.70;99.90
21199;DHT22;10757;51.038;3.712;2022-09-17T03:30:31;12.80;99.90
21199;DHT22;10757;51.038;3.712;2022-09-17T03:32:56;12.70;99.90
21199;DHT22;10757;51.038;3.712;2022-09-17T03:35:22;12.80;99.90
21199;DHT22;10757;51.038;3.712;2022-09-17T03:37:48;13.00;99.90
21199;DHT22;10757;51.038;3.712;2022-09-17T03:40:13;13.10;99.90
21199;DHT22;10757;51.038;3.712;2022-09-17T03:42:39;13.10;99.90
21199;DHT22;10757;51.038;3.712;2022-09-17T03:45:05;12.80;99.90
21199;DHT22;10757;51.038;3.712;2022-09-17T03:47:31;12.90;99.90
21199;DHT22;10757;51.038;3.712;2022-09-17T03:49:57;12.90;99.90
21199;DHT22;10757;51.038;3.712;2022-09-17T03:52:22;12.70;99.90
21199;DHT22;10757;51.038;3.712;2022-09-17T03:54:48;12.50;99.90
21199;DHT22;10757;51.038;3.712;2022-09-17T03:57:13;12.40;99.90
21199;DHT22;10757;51.038;3.712;2022-09-17T03:59:39;12.70;99.90
21199;DHT22;10757;51.038;3.712;2022-09-17T04:02:05;12.90;99.90
21199;DHT22;10757;51.038;3.712;2022-09-17T04:04:31;13.00;99.90
21199;DHT22;10757;51.038;3.712;2022-09-17T04:06:57;13.10;99.90
21199;DHT22;10757;51.038;3.712;2022-09-17T04:09:22;13.10;99.90
21199;DHT22;10757;51.038;3.712;2022-09-17T04:11:48;12.90;99.90
21199;DHT22;10757;51.038;3.712;2022-09-17T04:14:14;12.70;99.90
21199;DHT22;10757;51.038;3.712;2022-09-17T04:16:39;12.70;99.90
21199;DHT22;10757;51.038;3.712;2022-09-17T04:19:05;12.50;99.90
21199;DHT22;10757;51.038;3.712;2022-09-17T04:21:31;12.50;99.90
21199;DHT22;10757;51.038;3.712;2022-09-17T04:23:56;12.40;99.90
21199;DHT22;10757;51.038;3.712;2022-09-17T04:26:22;12.30;99.90
21199;DHT22;10757;51.038;3.712;2022-09-17T04:28:48;12.20;99.90
21199;DHT22;10757;51.038;3.712;2022-09-17T04:31:14;12.20;99.90
21199;DHT22;10757;51.038;3.712;2022-09-17T04:33:39;12.20;99.90
21199;DHT22;10757;51.038;3.712;2022-09-17T04:36:05;12.20;99.90
21199;DHT22;10757;51.038;3.712;2022-09-17T04:38:31;12.20;99.90
21199;DHT22;10757;51.038;3.712;2022-09-17T04:40:58;12.20;99.90
21199;DHT22;10757;51.038;3.712;2022-09-17T04:43:24;12.40;99.90
21199;DHT22;10757;51.038;3.712;2022-09-17T04:45:50;12.40;99.90
21199;DHT22;10757;51.038;3.712;2022-09-17T04:48:16;12.40;99.90
21199;DHT22;10757;51.038;3.712;2022-09-17T04:50:42;12.40;99.90
21199;DHT22;10757;51.038;3.712;2022-09-17T04:53:08;12.30;99.90
21199;DHT22;10757;51.038;3.712;2022-09-17T04:55:34;12.30;99.90
21199;DHT22;10757;51.038;3.712;2022-09-17T04:57:59;12.40;99.90
21199;DHT22;10757;51.038;3.712;2022-09-17T05:00:25;12.30;99.90
21199;DHT22;10757;51.038;3.712;2022-09-17T05:02:53;12.20;99.90
21199;DHT22;10757;51.038;3.712;2022-09-17T05:05:20;12.20;99.90
21199;DHT22;10757;51.038;3.712;2022-09-17T05:07:46;12.20;99.90
21199;DHT22;10757;51.038;3.712;2022-09-17T05:10:14;12.30;99.90
21199;DHT22;10757;51.038;3.712;2022-09-17T05:12:40;12.50;99.90
21199;DHT22;10757;51.038;3.712;2022-09-17T05:15:11;12.60;99.90
21199;DHT22;10757;51.038;3.712;2022-09-17T05:17:37;12.60;99.90
21199;DHT22;10757;51.038;3.712;2022-09-17T05:20:02;12.70;99.90
21199;DHT22;10757;51.038;3.712;2022-09-17T05:22:28;12.60;99.90
21199;DHT22;10757;51.038;3.712;2022-09-17T05:24:54;12.60;99.90
21199;DHT22;10757;51.038;3.712;2022-09-17T05:27:19;12.60;99.90
21199;DHT22;10757;51.038;3.712;2022-09-17T05:29:45;12.60;99.90
21199;DHT22;10757;51.038;3.712;2022-09-17T05:32:11;12.60;99.90
21199;DHT22;10757;51.038;3.712;2022-09-17T05:34:36;12.70;99.90
21199;DHT22;10757;51.038;3.712;2022-09-17T05:37:02;12.70;99.90
21199;DHT22;10757;51.038;3.712;2022-09-17T05:39:28;12.70;99.90
21199;DHT22;10757;51.038;3.712;2022-09-17T05:41:54;12.70;99.90
21199;DHT22;10757;51.038;3.712;2022-09-17T05:44:20;12.80;99.90
21199;DHT22;10757;51.038;3.712;2022-09-17T05:46:46;12.80;99.90
21199;DHT22;10757;51.038;3.712;2022-09-17T05:49:13;12.80;99.90
21199;DHT22;10757;51.038;3.712;2022-09-17T05:51:40;12.80;99.90
21199;DHT22;10757;51.038;3.712;2022-09-17T05:54:06;12.80;99.90
21199;DHT22;10757;51.038;3.712;2022-09-17T05:56:32;12.70;99.90
21199;DHT22;10757;51.038;3.712;2022-09-17T05:58:58;12.80;99.90
21199;DHT22;10757;51.038;3.712;2022-09-17T06:01:23;12.80;99.90
21199;DHT22;10757;51.038;3.712;2022-09-17T06:03:52;12.80;99.90
21199;DHT22;10757;51.038;3.712;2022-09-17T06:06:23;12.80;99.90
21199;DHT22;10757;51.038;3.712;2022-09-17T06:08:56;12.70;99.90
21199;DHT22;10757;51.038;3.712;2022-09-17T06:11:30;12.70;99.90
21199;DHT22;10757;51.038;3.712;2022-09-17T06:14:04;12.80;99.90
21199;DHT22;10757;51.038;3.712;2022-09-17T06:16:52;12.80;99.90
21199;DHT22;10757;51.038;3.712;2022-09-17T06:19:22;12.80;99.90
21199;DHT22;10757;51.038;3.712;2022-09-17T06:22:00;12.90;99.90
21199;DHT22;10757;51.038;3.712;2022-09-17T06:24:27;13.00;99.90
21199;DHT22;10757;51.038;3.712;2022-09-17T06:26:53;12.90;99.90
21199;DHT22;10757;51.038;3.712;2022-09-17T06:29:19;12.90;99.90
21199;DHT22;10757;51.038;3.712;2022-09-17T06:31:52;12.70;99.90
21199;DHT22;10757;51.038;3.712;2022-09-17T06:34:18;12.70;99.90
21199;DHT22;10757;51.038;3.712;2022-09-17T06:36:45;12.80;99.90
21199;DHT22;10757;51.038;3.712;2022-09-17T06:39:11;13.10;99.90
21199;DHT22;10757;51.038;3.712;2022-09-17T06:41:40;13.10;99.90
21199;DHT22;10757;51.038;3.712;2022-09-17T06:44:09;13.00;99.90
21199;DHT22;10757;51.038;3.712;2022-09-17T06:46:38;13.10;99.90
21199;DHT22;10757;51.038;3.712;2022-09-17T06:49:04;13.00;99.90
21199;DHT22;10757;51.038;3.712;2022-09-17T06:51:31;13.30;99.90
21199;DHT22;10757;51.038;3.712;2022-09-17T06:53:59;13.30;99.90
21199;DHT22;10757;51.038;3.712;2022-09-17T06:56:28;13.40;99.90
21199;DHT22;10757;51.038;3.712;2022-09-17T06:58:54;13.50;99.90
21199;DHT22;10757;51.038;3.712;2022-09-17T07:01:22;13.70;99.90
21199;DHT22;10757;51.038;3.712;2022-09-17T07:03:53;13.60;99.90
21199;DHT22;10757;51.038;3.712;2022-09-17T07:06:23;13.30;99.90
21199;DHT22;10757;51.038;3.712;2022-09-17T07:09:19;13.20;99.90
21199;DHT22;10757;51.038;3.712;2022-09-17T07:11:47;13.10;99.90
21199;DHT22;10757;51.038;3.712;2022-09-17T07:14:17;13.10;99.90
21199;DHT22;10757;51.038;3.712;2022-09-17T07:16:56;13.20;99.90
21199;DHT22;10757;51.038;3.712;2022-09-17T07:19:25;13.00;99.90
21199;DHT22;10757;51.038;3.712;2022-09-17T07:22:01;13.10;99.90
21199;DHT22;10757;51.038;3.712;2022-09-17T07:24:33;13.20;99.90
21199;DHT22;10757;51.038;3.712;2022-09-17T07:27:00;13.20;99.90
21199;DHT22;10757;51.038;3.712;2022-09-17T07:29:26;13.20;99.90
21199;DHT22;10757;51.038;3.712;2022-09-17T07:32:24;13.30;99.90
21199;DHT22;10757;51.038;3.712;2022-09-17T07:34:50;13.20;99.90
21199;DHT22;10757;51.038;3.712;2022-09-17T07:37:16;13.00;99.90
21199;DHT22;10757;51.038;3.712;2022-09-17T07:39:42;12.80;99.90
21199;DHT22;10757;51.038;3.712;2022-09-17T07:42:09;12.80;99.90
21199;DHT22;10757;51.038;3.712;2022-09-17T07:44:35;12.70;99.90
21199;DHT22;10757;51.038;3.712;2022-09-17T07:47:00;12.60;99.90
21199;DHT22;10757;51.038;3.712;2022-09-17T07:49:26;12.70;99.90
21199;DHT22;10757;51.038;3.712;2022-09-17T07:51:52;12.80;99.90
21199;DHT22;10757;51.038;3.712;2022-09-17T07:54:19;12.90;99.90
21199;DHT22;10757;51.038;3.712;2022-09-17T07:56:45;13.10;99.90
21199;DHT22;10757;51.038;3.712;2022-09-17T07:59:10;13.30;99.90
21199;DHT22;10757;51.038;3.712;2022-09-17T08:01:36;13.50;99.90
21199;DHT22;10757;51.038;3.712;2022-09-17T08:04:03;13.70;99.90
21199;DHT22;10757;51.038;3.712;2022-09-17T08:06:29;14.00;99.90
21199;DHT22;10757;51.038;3.712;2022-09-17T08:08:56;14.10;99.90
21199;DHT22;10757;51.038;3.712;2022-09-17T08:11:26;14.20;99.90
21199;DHT22;10757;51.038;3.712;2022-09-17T08:13:53;14.20;99.90
21199;DHT22;10757;51.038;3.712;2022-09-17T08:16:20;14.10;99.90
21199;DHT22;10757;51.038;3.712;2022-09-17T08:18:46;14.20;99.90
21199;DHT22;10757;51.038;3.712;2022-09-17T08:21:15;14.20;99.90
21199;DHT22;10757;51.038;3.712;2022-09-17T08:23:42;14.20;99.90
21199;DHT22;10757;51.038;3.712;2022-09-17T08:26:16;14.30;99.90
21199;DHT22;10757;51.038;3.712;2022-09-17T08:28:53;14.60;99.90
21199;DHT22;10757;51.038;3.712;2022-09-17T08:31:24;14.70;99.90
21199;DHT22;10757;51.038;3.712;2022-09-17T08:33:51;14.80;99.90
21199;DHT22;10757;51.038;3.712;2022-09-17T08:36:18;14.90;99.90
21199;DHT22;10757;51.038;3.712;2022-09-17T08:38:44;15.10;99.90
21199;DHT22;10757;51.038;3.712;2022-09-17T08:46:18;15.20;99.90
21199;DHT22;10757;51.038;3.712;2022-09-17T08:48:49;15.30;99.90
21199;DHT22;10757;51.038;3.712;2022-09-17T08:53:55;15.40;99.90
21199;DHT22;10757;51.038;3.712;2022-09-17T08:56:26;15.40;99.90
21199;DHT22;10757;51.038;3.712;2022-09-17T08:59:14;15.20;99.90
21199;DHT22;10757;51.038;3.712;2022-09-17T09:01:58;15.00;99.90
21199;DHT22;10757;51.038;3.712;2022-09-17T09:04:44;14.90;99.90
21199;DHT22;10757;51.038;3.712;2022-09-17T09:07:17;14.40;99.90
21199;DHT22;10757;51.038;3.712;2022-09-17T09:09:59;13.90;99.90
21199;DHT22;10757;51.038;3.712;2022-09-17T09:12:31;13.40;99.90
21199;DHT22;10757;51.038;3.712;2022-09-17T09:15:07;13.30;99.90
21199;DHT22;10757;51.038;3.712;2022-09-17T09:17:44;13.20;99.90
21199;DHT22;10757;51.038;3.712;2022-09-17T09:20:16;12.90;99.90
21199;DHT22;10757;51.038;3.712;2022-09-17T09:22:46;12.90;99.90
21199;DHT22;10757;51.038;3.712;2022-09-17T09:25:23;12.90;99.90
21199;DHT22;10757;51.038;3.712;2022-09-17T09:30:24;13.10;99.90
21199;DHT22;10757;51.038;3.712;2022-09-17T09:33:12;13.20;99.90
21199;DHT22;10757;51.038;3.712;2022-09-17T09:35:40;13.00;99.90
21199;DHT22;10757;51.038;3.712;2022-09-17T09:41:14;13.10;99.90
21199;DHT22;10757;51.038;3.712;2022-09-17T09:43:56;13.00;99.90
21199;DHT22;10757;51.038;3.712;2022-09-17T09:49:13;12.90;99.90
21199;DHT22;10757;51.038;3.712;2022-09-17T09:57:29;12.90;99.90
21199;DHT22;10757;51.038;3.712;2022-09-17T10:03:02;12.90;99.90
21199;DHT22;10757;51.038;3.712;2022-09-17T10:05:30;12.90;99.90
21199;DHT22;10757;51.038;3.712;2022-09-17T10:07:56;13.00;99.90
21199;DHT22;10757;51.038;3.712;2022-09-17T10:10:22;13.20;99.90
21199;DHT22;10757;51.038;3.712;2022-09-17T10:12:47;13.40;99.90
21199;DHT22;10757;51.038;3.712;2022-09-17T10:15:27;13.40;99.90
21199;DHT22;10757;51.038;3.712;2022-09-17T10:18:18;13.70;99.90
21199;DHT22;10757;51.038;3.712;2022-09-17T10:20:55;13.70;99.90
21199;DHT22;10757;51.038;3.712;2022-09-17T10:23:23;13.50;99.90
21199;DHT22;10757;51.038;3.712;2022-09-17T10:25:49;13.30;99.90
21199;DHT22;10757;51.038;3.712;2022-09-17T10:28:46;13.20;99.90
21199;DHT22;10757;51.038;3.712;2022-09-17T10:31:12;13.20;99.90
21199;DHT22;10757;51.038;3.712;2022-09-17T10:33:49;13.30;99.90
21199;DHT22;10757;51.038;3.712;2022-09-17T10:36:16;13.50;99.90
21199;DHT22;10757;51.038;3.712;2022-09-17T10:38:44;13.80;99.90
21199;DHT22;10757;51.038;3.712;2022-09-17T10:41:16;13.80;99.90
21199;DHT22;10757;51.038;3.712;2022-09-17T10:43:42;13.80;99.90
21199;DHT22;10757;51.038;3.712;2022-09-17T10:46:17;13.70;99.90
21199;DHT22;10757;51.038;3.712;2022-09-17T10:48:51;13.60;99.90
21199;DHT22;10757;51.038;3.712;2022-09-17T10:51:21;13.50;99.90
21199;DHT22;10757;51.038;3.712;2022-09-17T10:56:50;13.50;99.90
21199;DHT22;10757;51.038;3.712;2022-09-17T10:59:27;13.80;99.90
21199;DHT22;10757;51.038;3.712;2022-09-17T11:04:58;13.70;99.90
21199;DHT22;10757;51.038;3.712;2022-09-17T11:10:25;13.90;99.90
21199;DHT22;10757;51.038;3.712;2022-09-17T11:18:53;14.80;99.90
21199;DHT22;10757;51.038;3.712;2022-09-17T11:21:41;15.10;99.90
21199;DHT22;10757;51.038;3.712;2022-09-17T11:24:38;15.40;99.90
21199;DHT22;10757;51.038;3.712;2022-09-17T11:30:18;16.40;99.90
21199;DHT22;10757;51.038;3.712;2022-09-17T11:36:00;15.20;99.90
21199;DHT22;10757;51.038;3.712;2022-09-17T11:38:38;14.80;99.90
21199;DHT22;10757;51.038;3.712;2022-09-17T11:41:15;14.90;99.90
21199;DHT22;10757;51.038;3.712;2022-09-17T11:46:47;15.50;99.90
21199;DHT22;10757;51.038;3.712;2022-09-17T11:52:03;15.70;99.90
21199;DHT22;10757;51.038;3.712;2022-09-17T11:54:48;15.80;99.90
21199;DHT22;10757;51.038;3.712;2022-09-17T11:57:21;16.00;99.90
21199;DHT22;10757;51.038;3.712;2022-09-17T12:05:06;16.10;99.90
21199;DHT22;10757;51.038;3.712;2022-09-17T12:15:35;16.10;99.90
21199;DHT22;10757;51.038;3.712;2022-09-17T12:18:31;16.30;99.90
21199;DHT22;10757;51.038;3.712;2022-09-17T12:21:02;16.50;99.90
21199;DHT22;10757;51.038;3.712;2022-09-17T12:23:40;16.70;99.90
21199;DHT22;10757;51.038;3.712;2022-09-17T12:29:02;17.00;99.90
21199;DHT22;10757;51.038;3.712;2022-09-17T12:31:55;17.10;99.90
21199;DHT22;10757;51.038;3.712;2022-09-17T12:37:59;17.20;99.90
21199;DHT22;10757;51.038;3.712;2022-09-17T12:41:02;16.90;99.90
21199;DHT22;10757;51.038;3.712;2022-09-17T12:55:16;18.20;99.90
21199;DHT22;10757;51.038;3.712;2022-09-17T13:00:13;16.90;99.90
21199;DHT22;10757;51.038;3.712;2022-09-17T13:05:48;14.60;99.90
21199;DHT22;10757;51.038;3.712;2022-09-17T13:14:11;14.20;99.90
21199;DHT22;10757;51.038;3.712;2022-09-17T13:22:05;15.30;99.90
21199;DHT22;10757;51.038;3.712;2022-09-17T13:24:32;15.60;99.90
21199;DHT22;10757;51.038;3.712;2022-09-17T13:27:02;15.50;99.90
21199;DHT22;10757;51.038;3.712;2022-09-17T13:37:34;15.20;99.90
21199;DHT22;10757;51.038;3.712;2022-09-17T13:40:02;15.00;99.90
21199;DHT22;10757;51.038;3.712;2022-09-17T13:42:31;15.10;99.90
21199;DHT22;10757;51.038;3.712;2022-09-17T13:45:16;14.80;99.90
21199;DHT22;10757;51.038;3.712;2022-09-17T13:47:57;14.60;99.90
21199;DHT22;10757;51.038;3.712;2022-09-17T13:50:31;14.80;99.90
21199;DHT22;10757;51.038;3.712;2022-09-17T13:56:43;15.10;99.90
21199;DHT22;10757;51.038;3.712;2022-09-17T13:58:42;15.40;99.90
21199;DHT22;10757;51.038;3.712;2022-09-17T14:01:11;15.80;99.90
21199;DHT22;10757;51.038;3.712;2022-09-17T14:24:46;13.90;99.90
21199;DHT22;10757;51.038;3.712;2022-09-17T14:30:29;13.70;99.90
21199;DHT22;10757;51.038;3.712;2022-09-17T14:35:35;13.80;99.90
21199;DHT22;10757;51.038;3.712;2022-09-17T14:41:06;14.00;99.90
21199;DHT22;10757;51.038;3.712;2022-09-17T14:43:48;14.30;99.90
21199;DHT22;10757;51.038;3.712;2022-09-17T14:46:32;14.60;99.90
21199;DHT22;10757;51.038;3.712;2022-09-17T14:51:48;14.90;99.90
21199;DHT22;10757;51.038;3.712;2022-09-17T14:54:22;15.00;99.90
21199;DHT22;10757;51.038;3.712;2022-09-17T14:56:53;14.90;99.90
21199;DHT22;10757;51.038;3.712;2022-09-17T15:02:36;14.70;99.90
21199;DHT22;10757;51.038;3.712;2022-09-17T15:05:20;14.50;99.90
21199;DHT22;10757;51.038;3.712;2022-09-17T15:07:49;14.20;99.90
21199;DHT22;10757;51.038;3.712;2022-09-17T15:10:23;13.90;99.90
21199;DHT22;10757;51.038;3.712;2022-09-17T15:12:49;13.80;99.90
21199;DHT22;10757;51.038;3.712;2022-09-17T15:15:24;13.80;99.90
21199;DHT22;10757;51.038;3.712;2022-09-17T15:17:52;14.00;99.90
21199;DHT22;10757;51.038;3.712;2022-09-17T15:20:24;13.90;99.90
21199;DHT22;10757;51.038;3.712;2022-09-17T15:23:35;13.90;99.90
21199;DHT22;10757;51.038;3.712;2022-09-17T15:25:56;13.90;99.90
21199;DHT22;10757;51.038;3.712;2022-09-17T15:30:51;13.80;99.90
21199;DHT22;10757;51.038;3.712;2022-09-17T15:33:17;13.70;99.90
21199;DHT22;10757;51.038;3.712;2022-09-17T15:36:20;13.70;99.90
21199;DHT22;10757;51.038;3.712;2022-09-17T15:38:46;13.50;99.90
21199;DHT22;10757;51.038;3.712;2022-09-17T15:41:23;13.60;99.90
21199;DHT22;10757;51.038;3.712;2022-09-17T15:43:49;13.50;99.90
21199;DHT22;10757;51.038;3.712;2022-09-17T15:46:28;13.60;99.90
21199;DHT22;10757;51.038;3.712;2022-09-17T15:48:56;13.60;99.90
21199;DHT22;10757;51.038;3.712;2022-09-17T15:51:32;13.70;99.90
21199;DHT22;10757;51.038;3.712;2022-09-17T15:54:28;13.70;99.90
21199;DHT22;10757;51.038;3.712;2022-09-17T15:56:57;13.60;99.90
21199;DHT22;10757;51.038;3.712;2022-09-17T15:59:31;13.60;99.90
21199;DHT22;10757;51.038;3.712;2022-09-17T16:02:01;13.70;99.90
21199;DHT22;10757;51.038;3.712;2022-09-17T16:04:33;13.60;99.90
21199;DHT22;10757;51.038;3.712;2022-09-17T16:09:43;13.80;99.90
21199;DHT22;10757;51.038;3.712;2022-09-17T16:12:13;13.80;99.90
21199;DHT22;10757;51.038;3.712;2022-09-17T16:14:45;13.90;99.90
21199;DHT22;10757;51.038;3.712;2022-09-17T16:20:20;14.00;99.90
21199;DHT22;10757;51.038;3.712;2022-09-17T16:22:48;13.80;99.90
21199;DHT22;10757;51.038;3.712;2022-09-17T16:25:16;13.80;99.90
21199;DHT22;10757;51.038;3.712;2022-09-17T16:28:09;14.00;99.90
21199;DHT22;10757;51.038;3.712;2022-09-17T16:30:40;13.90;99.90
21199;DHT22;10757;51.038;3.712;2022-09-17T16:33:08;14.20;99.90
21199;DHT22;10757;51.038;3.712;2022-09-17T16:35:33;14.40;99.90
21199;DHT22;10757;51.038;3.712;2022-09-17T16:37:59;14.50;99.90
21199;DHT22;10757;51.038;3.712;2022-09-17T16:40:25;14.50;99.90
21199;DHT22;10757;51.038;3.712;2022-09-17T16:42:59;14.40;99.90
21199;DHT22;10757;51.038;3.712;2022-09-17T16:45:29;14.40;99.90
21199;DHT22;10757;51.038;3.712;2022-09-17T16:47:58;14.50;99.90
21199;DHT22;10757;51.038;3.712;2022-09-17T16:50:24;14.50;99.90
21199;DHT22;10757;51.038;3.712;2022-09-17T16:52:50;14.50;99.90
21199;DHT22;10757;51.038;3.712;2022-09-17T16:55:17;14.60;99.90
21199;DHT22;10757;51.038;3.712;2022-09-17T16:57:43;14.70;99.90
21199;DHT22;10757;51.038;3.712;2022-09-17T17:00:12;14.60;99.90
21199;DHT22;10757;51.038;3.712;2022-09-17T17:02:51;14.50;99.90
21199;DHT22;10757;51.038;3.712;2022-09-17T17:05:22;14.20;99.90
21199;DHT22;10757;51.038;3.712;2022-09-17T17:07:48;14.10;99.90
21199;DHT22;10757;51.038;3.712;2022-09-17T17:10:17;14.10;99.90
21199;DHT22;10757;51.038;3.712;2022-09-17T17:12:44;14.20;99.90
21199;DHT22;10757;51.038;3.712;2022-09-17T17:15:13;14.20;99.90
21199;DHT22;10757;51.038;3.712;2022-09-17T17:17:39;14.20;99.90
21199;DHT22;10757;51.038;3.712;2022-09-17T17:20:06;14.30;99.90
21199;DHT22;10757;51.038;3.712;2022-09-17T17:22:38;14.20;99.90
21199;DHT22;10757;51.038;3.712;2022-09-17T17:25:12;14.20;99.90
21199;DHT22;10757;51.038;3.712;2022-09-17T17:27:39;14.20;99.90
21199;DHT22;10757;51.038;3.712;2022-09-17T17:30:45;14.10;99.90
21199;DHT22;10757;51.038;3.712;2022-09-17T17:33:11;14.10;99.90
21199;DHT22;10757;51.038;3.712;2022-09-17T17:35:40;14.10;99.90
21199;DHT22;10757;51.038;3.712;2022-09-17T17:38:06;14.00;99.90
21199;DHT22;10757;51.038;3.712;2022-09-17T17:40:32;13.90;99.90
21199;DHT22;10757;51.038;3.712;2022-09-17T17:43:13;13.80;99.90
21199;DHT22;10757;51.038;3.712;2022-09-17T17:45:39;13.80;99.90
21199;DHT22;10757;51.038;3.712;2022-09-17T17:48:08;13.80;99.90
21199;DHT22;10757;51.038;3.712;2022-09-17T17:50:34;13.70;99.90
21199;DHT22;10757;51.038;3.712;2022-09-17T17:53:02;13.70;99.90
21199;DHT22;10757;51.038;3.712;2022-09-17T17:55:28;13.70;99.90
21199;DHT22;10757;51.038;3.712;2022-09-17T17:57:55;13.60;99.90
21199;DHT22;10757;51.038;3.712;2022-09-17T18:00:41;13.50;99.90
21199;DHT22;10757;51.038;3.712;2022-09-17T18:03:13;13.60;99.90
21199;DHT22;10757;51.038;3.712;2022-09-17T18:05:42;13.70;99.90
21199;DHT22;10757;51.038;3.712;2022-09-17T18:08:10;13.70;99.90
21199;DHT22;10757;51.038;3.712;2022-09-17T18:10:36;13.70;99.90
21199;DHT22;10757;51.038;3.712;2022-09-17T18:13:05;13.60;99.90
21199;DHT22;10757;51.038;3.712;2022-09-17T18:15:53;13.60;99.90
21199;DHT22;10757;51.038;3.712;2022-09-17T18:18:25;13.60;99.90
21199;DHT22;10757;51.038;3.712;2022-09-17T18:21:03;13.70;99.90
21199;DHT22;10757;51.038;3.712;2022-09-17T18:23:34;13.70;99.90
21199;DHT22;10757;51.038;3.712;2022-09-17T18:28:45;13.70;99.90
21199;DHT22;10757;51.038;3.712;2022-09-17T18:31:26;13.70;99.90
21199;DHT22;10757;51.038;3.712;2022-09-17T18:34:01;13.80;99.90
21199;DHT22;10757;51.038;3.712;2022-09-17T18:36:32;13.80;99.90
21199;DHT22;10757;51.038;3.712;2022-09-17T18:39:05;14.00;99.90
21199;DHT22;10757;51.038;3.712;2022-09-17T18:41:46;13.90;99.90
21199;DHT22;10757;51.038;3.712;2022-09-17T18:44:22;14.00;99.90
21199;DHT22;10757;51.038;3.712;2022-09-17T18:46:57;14.10;99.90
21199;DHT22;10757;51.038;3.712;2022-09-17T18:49:32;13.90;99.90
21199;DHT22;10757;51.038;3.712;2022-09-17T18:52:04;14.00;99.90
21199;DHT22;10757;51.038;3.712;2022-09-17T18:54:37;13.90;99.90
21199;DHT22;10757;51.038;3.712;2022-09-17T18:57:03;14.00;99.90
21199;DHT22;10757;51.038;3.712;2022-09-17T18:59:36;13.90;99.90
21199;DHT22;10757;51.038;3.712;2022-09-17T19:02:10;14.00;99.90
21199;DHT22;10757;51.038;3.712;2022-09-17T19:04:37;14.00;99.90
21199;DHT22;10757;51.038;3.712;2022-09-17T19:10:05;14.20;99.90
21199;DHT22;10757;51.038;3.712;2022-09-17T19:12:35;14.30;99.90
21199;DHT22;10757;51.038;3.712;2022-09-17T19:15:04;14.30;99.90
21199;DHT22;10757;51.038;3.712;2022-09-17T19:17:36;14.30;99.90
21199;DHT22;10757;51.038;3.712;2022-09-17T19:20:35;14.30;99.90